createdAt,value
2022-11-27T00:02:42.141Z,25.05
2022-11-27T00:06:10.945Z,25.43
2022-11-27T00:09:42.676Z,25.39
2022-11-27T00:13:11.347Z,25.37
2022-11-27T00:16:39.976Z,25.48
2022-11-27T00:20:08.608Z,25.33
2022-11-27T00:23:37.451Z,25.57
2022-11-27T00:27:06.284Z,25.52
2022-11-27T00:30:34.923Z,25.65
2022-11-27T00:34:03.485Z,25.57
2022-11-27T00:37:32.154Z,25.54
2022-11-27T00:41:00.784Z,25.75
2022-11-27T00:44:30.423Z,25.44
2022-11-27T00:47:59.001Z,25.33
2022-11-27T00:51:27.679Z,25.57
2022-11-27T00:54:56.280Z,25.57
2022-11-27T00:58:24.935Z,25.37
2022-11-27T01:01:59.279Z,25.78
2022-11-27T01:05:28.185Z,25.91
2022-11-27T01:08:56.829Z,25.96
2022-11-27T01:12:25.503Z,25.79
2022-11-27T01:15:54.146Z,25.84
2022-11-27T01:19:22.817Z,25.98
2022-11-27T01:22:51.401Z,25.89
2022-11-27T01:26:20.088Z,26.76
2022-11-27T01:29:48.691Z,26.57
2022-11-27T01:33:17.339Z,26.99
2022-11-27T01:36:46.024Z,27.22
2022-11-27T01:40:17.420Z,27.30
2022-11-27T05:51:21.688Z,27.92
2022-11-27T05:54:50.292Z,29.27
2022-11-27T05:58:18.975Z,29.11
2022-11-27T06:01:47.644Z,29.19
2022-11-27T06:05:16.344Z,29.12
2022-11-27T06:08:44.966Z,29.66
2022-11-27T06:12:13.637Z,29.01
2022-11-27T06:15:42.256Z,29.07
2022-11-27T06:19:10.933Z,29.38
2022-11-27T06:22:39.523Z,29.75
2022-11-27T06:26:08.274Z,28.55
2022-11-27T06:29:36.873Z,29.60
2022-11-27T06:33:05.572Z,28.71
2022-11-27T06:36:34.218Z,28.82
2022-11-27T06:40:02.864Z,28.52
2022-11-27T06:43:31.468Z,28.20
2022-11-27T06:47:00.110Z,27.23
2022-11-27T06:50:29.918Z,27.82
2022-11-27T06:53:58.640Z,27.19
2022-11-27T06:57:27.267Z,26.69
2022-11-27T07:00:56.139Z,26.54
2022-11-27T07:04:24.745Z,26.61
2022-11-27T07:07:53.492Z,27.13
2022-11-27T07:11:22.220Z,26.79
2022-11-27T07:14:50.876Z,26.43
2022-11-27T07:18:19.478Z,26.46
2022-11-27T07:21:48.187Z,25.97
2022-11-27T07:25:16.756Z,25.76
2022-11-27T07:28:45.426Z,25.99
2022-11-27T07:32:17.153Z,25.46
2022-11-27T07:35:45.844Z,25.25
2022-11-27T07:39:14.440Z,24.79
2022-11-27T07:42:43.065Z,24.78
2022-11-27T07:46:11.817Z,24.39
2022-11-27T10:14:21.815Z,23.57
2022-11-27T10:17:56.208Z,23.79
2022-11-27T10:21:40.056Z,23.61
2022-11-27T10:24:31.993Z,24.42
2022-11-27T10:27:43.765Z,24.38
2022-11-27T10:31:12.431Z,24.11
2022-11-27T10:34:47.192Z,24.36
2022-11-27T10:38:02.261Z,23.99
2022-11-27T10:40:58.511Z,23.63
2022-11-27T10:44:27.165Z,23.93
2022-11-27T10:47:55.851Z,24.03
2022-11-27T10:51:24.439Z,24.22
2022-11-27T10:54:53.098Z,24.65
2022-11-27T10:58:33.592Z,24.26
2022-11-27T11:02:02.319Z,23.88
2022-11-27T11:05:44.983Z,24.21
2022-11-27T11:09:14.092Z,23.88
2022-11-27T11:12:48.622Z,23.91
2022-11-27T11:16:23.366Z,24.16
2022-11-27T11:20:11.218Z,23.94
2022-11-27T11:23:39.869Z,24.32
2022-11-27T11:26:58.036Z,24.30
2022-11-27T11:30:10.005Z,24.49
2022-11-27T11:33:41.538Z,23.97
2022-11-27T11:37:10.256Z,23.93
2022-11-27T11:40:38.935Z,24.18
2022-11-27T11:44:07.783Z,24.36
2022-11-27T11:47:36.393Z,24.53
2022-11-27T11:51:03.551Z,24.56
2022-11-27T11:54:32.208Z,24.23
2022-11-27T11:57:59.172Z,24.95
2022-11-27T12:01:27.933Z,24.93
2022-11-27T12:04:40.250Z,25.54
2022-11-27T12:08:09.388Z,25.36
2022-11-27T12:11:24.325Z,25.90
